sensor_id;sensor_type;location;lat;lon;timestamp;pressure;altitude;pressure_sealevel;temperature;humidity
64080;BME280;51042;49.696;10.808;2022-10-16T00:00:14;98305.81;;;14.84;100.00
64080;BME280;51042;49.696;10.808;2022-10-16T00:02:40;98301.84;;;14.85;100.00
64080;BME280;51042;49.696;10.808;2022-10-16T00:05:05;98299.25;;;14.82;100.00
64080;BME280;51042;49.696;10.808;2022-10-16T00:07:30;98299.41;;;14.78;100.00
64080;BME280;51042;49.696;10.808;2022-10-16T00:09:56;98305.28;;;14.71;100.00
64080;BME280;51042;49.696;10.808;2022-10-16T00:12:21;98311.88;;;14.64;100.00
64080;BME280;51042;49.696;10.808;2022-10-16T00:14:46;98305.91;;;14.57;100.00
64080;BME280;51042;49.696;10.808;2022-10-16T00:17:11;98306.81;;;14.54;100.00
64080;BME280;51042;49.696;10.808;2022-10-16T00:19:37;98303.19;;;14.48;100.00
64080;BME280;51042;49.696;10.808;2022-10-16T00:22:02;98305.31;;;14.44;100.00
64080;BME280;51042;49.696;10.808;2022-10-16T00:24:27;98302.41;;;14.38;100.00
64080;BME280;51042;49.696;10.808;2022-10-16T00:26:53;98307.78;;;14.32;100.00
64080;BME280;51042;49.696;10.808;2022-10-16T00:29:18;98293.81;;;14.27;100.00
64080;BME280;51042;49.696;10.808;2022-10-16T00:31:43;98289.97;;;14.24;100.00
64080;BME280;51042;49.696;10.808;2022-10-16T00:34:09;98296.75;;;14.23;100.00
64080;BME280;51042;49.696;10.808;2022-10-16T00:36:34;98303.50;;;14.22;100.00
64080;BME280;51042;49.696;10.808;2022-10-16T00:39:00;98296.28;;;14.25;100.00
64080;BME280;51042;49.696;10.808;2022-10-16T00:41:26;98286.75;;;14.26;100.00
64080;BME280;51042;49.696;10.808;2022-10-16T00:43:54;98294.59;;;14.27;100.00
64080;BME280;51042;49.696;10.808;2022-10-16T00:46:25;98285.53;;;14.27;100.00
64080;BME280;51042;49.696;10.808;2022-10-16T00:51:28;98310.56;;;14.23;100.00
64080;BME280;51042;49.696;10.808;2022-10-16T00:53:57;98306.53;;;14.24;100.00
64080;BME280;51042;49.696;10.808;2022-10-16T00:56:23;98308.41;;;14.27;100.00
64080;BME280;51042;49.696;10.808;2022-10-16T00:58:49;98312.38;;;14.26;100.00
64080;BME280;51042;49.696;10.808;2022-10-16T01:18:11;98295.38;;;14.28;100.00
64080;BME280;51042;49.696;10.808;2022-10-16T01:29:11;98301.66;;;14.10;100.00
64080;BME280;51042;49.696;10.808;2022-10-16T01:31:41;98302.41;;;14.02;100.00
64080;BME280;51042;49.696;10.808;2022-10-16T01:34:16;98311.78;;;13.95;100.00
64080;BME280;51042;49.696;10.808;2022-10-16T01:36:55;98328.34;;;13.86;100.00
64080;BME280;51042;49.696;10.808;2022-10-16T01:39:28;98337.66;;;13.79;100.00
64080;BME280;51042;49.696;10.808;2022-10-16T01:42:00;98341.97;;;13.80;100.00
64080;BME280;51042;49.696;10.808;2022-10-16T01:44:40;98335.69;;;13.89;100.00
64080;BME280;51042;49.696;10.808;2022-10-16T01:47:08;98338.13;;;13.96;100.00
64080;BME280;51042;49.696;10.808;2022-10-16T01:49:38;98335.09;;;14.03;100.00
64080;BME280;51042;49.696;10.808;2022-10-16T01:52:06;98336.78;;;14.10;100.00
64080;BME280;51042;49.696;10.808;2022-10-16T01:54:36;98338.91;;;14.15;100.00
64080;BME280;51042;49.696;10.808;2022-10-16T01:57:07;98344.59;;;14.20;100.00
64080;BME280;51042;49.696;10.808;2022-10-16T01:59:35;98336.63;;;14.22;100.00
64080;BME280;51042;49.696;10.808;2022-10-16T02:02:09;98330.16;;;14.25;100.00
64080;BME280;51042;49.696;10.808;2022-10-16T02:04:40;98334.47;;;14.26;100.00
64080;BME280;51042;49.696;10.808;2022-10-16T02:07:10;98332.00;;;14.28;100.00
64080;BME280;51042;49.696;10.808;2022-10-16T02:09:36;98326.00;;;14.30;100.00
64080;BME280;51042;49.696;10.808;2022-10-16T02:12:23;98327.56;;;14.31;100.00
64080;BME280;51042;49.696;10.808;2022-10-16T02:14:52;98323.72;;;14.28;100.00
64080;BME280;51042;49.696;10.808;2022-10-16T02:17:18;98322.19;;;14.27;100.00
64080;BME280;51042;49.696;10.808;2022-10-16T02:19:44;98321.75;;;14.29;100.00
64080;BME280;51042;49.696;10.808;2022-10-16T02:22:15;98326.78;;;14.30;100.00
64080;BME280;51042;49.696;10.808;2022-10-16T02:29:59;98338.00;;;14.45;100.00
64080;BME280;51042;49.696;10.808;2022-10-16T02:32:33;98332.31;;;14.49;100.00
64080;BME280;51042;49.696;10.808;2022-10-16T02:35:02;98340.44;;;14.52;100.00
64080;BME280;51042;49.696;10.808;2022-10-16T02:37:28;98333.72;;;14.53;100.00
64080;BME280;51042;49.696;10.808;2022-10-16T02:39:54;98330.19;;;14.53;100.00
64080;BME280;51042;49.696;10.808;2022-10-16T02:42:26;98325.56;;;14.50;100.00
64080;BME280;51042;49.696;10.808;2022-10-16T02:44:53;98326.19;;;14.45;100.00
64080;BME280;51042;49.696;10.808;2022-10-16T02:47:18;98342.94;;;14.41;100.00
64080;BME280;51042;49.696;10.808;2022-10-16T02:49:43;98329.25;;;14.38;100.00
64080;BME280;51042;49.696;10.808;2022-10-16T02:52:09;98336.91;;;14.34;100.00
64080;BME280;51042;49.696;10.808;2022-10-16T02:54:34;98342.13;;;14.31;100.00
64080;BME280;51042;49.696;10.808;2022-10-16T02:56:59;98341.34;;;14.31;100.00
64080;BME280;51042;49.696;10.808;2022-10-16T02:59:25;98345.34;;;14.30;100.00
64080;BME280;51042;49.696;10.808;2022-10-16T03:01:50;98346.41;;;14.32;100.00
64080;BME280;51042;49.696;10.808;2022-10-16T03:04:15;98344.44;;;14.33;100.00
64080;BME280;51042;49.696;10.808;2022-10-16T03:06:41;98347.03;;;14.37;100.00
64080;BME280;51042;49.696;10.808;2022-10-16T03:09:06;98353.97;;;14.41;100.00
64080;BME280;51042;49.696;10.808;2022-10-16T03:11:31;98343.69;;;14.42;100.00
64080;BME280;51042;49.696;10.808;2022-10-16T03:13:57;98352.25;;;14.44;100.00
64080;BME280;51042;49.696;10.808;2022-10-16T03:16:22;98349.50;;;14.44;100.00
64080;BME280;51042;49.696;10.808;2022-10-16T03:18:48;98344.75;;;14.44;100.00
64080;BME280;51042;49.696;10.808;2022-10-16T03:21:14;98345.69;;;14.41;100.00
64080;BME280;51042;49.696;10.808;2022-10-16T03:23:40;98350.44;;;14.41;100.00
64080;BME280;51042;49.696;10.808;2022-10-16T03:26:05;98352.44;;;14.40;100.00
64080;BME280;51042;49.696;10.808;2022-10-16T03:28:30;98356.09;;;14.37;100.00
64080;BME280;51042;49.696;10.808;2022-10-16T03:30:56;98355.31;;;14.37;100.00
64080;BME280;51042;49.696;10.808;2022-10-16T03:33:21;98351.78;;;14.36;100.00
64080;BME280;51042;49.696;10.808;2022-10-16T03:35:53;98350.56;;;14.37;100.00
64080;BME280;51042;49.696;10.808;2022-10-16T03:38:19;98354.75;;;14.42;100.00
64080;BME280;51042;49.696;10.808;2022-10-16T03:40:45;98356.56;;;14.45;100.00
64080;BME280;51042;49.696;10.808;2022-10-16T03:43:11;98349.81;;;14.46;100.00
64080;BME280;51042;49.696;10.808;2022-10-16T03:45:36;98347.06;;;14.46;100.00
64080;BME280;51042;49.696;10.808;2022-10-16T03:48:01;98355.03;;;14.44;100.00
64080;BME280;51042;49.696;10.808;2022-10-16T03:50:28;98351.22;;;14.41;100.00
64080;BME280;51042;49.696;10.808;2022-10-16T03:52:53;98358.72;;;14.41;100.00
64080;BME280;51042;49.696;10.808;2022-10-16T03:55:19;98361.00;;;14.42;100.00
64080;BME280;51042;49.696;10.808;2022-10-16T03:57:44;98361.31;;;14.44;100.00
64080;BME280;51042;49.696;10.808;2022-10-16T04:00:09;98364.38;;;14.46;100.00
64080;BME280;51042;49.696;10.808;2022-10-16T04:02:35;98363.94;;;14.48;100.00
64080;BME280;51042;49.696;10.808;2022-10-16T04:05:01;98368.53;;;14.51;100.00
64080;BME280;51042;49.696;10.808;2022-10-16T04:07:26;98377.13;;;14.53;100.00
64080;BME280;51042;49.696;10.808;2022-10-16T04:09:51;98369.59;;;14.53;100.00
64080;BME280;51042;49.696;10.808;2022-10-16T04:12:17;98365.91;;;14.56;100.00
64080;BME280;51042;49.696;10.808;2022-10-16T04:14:42;98375.72;;;14.57;100.00
64080;BME280;51042;49.696;10.808;2022-10-16T04:17:08;98374.97;;;14.57;100.00
64080;BME280;51042;49.696;10.808;2022-10-16T04:19:33;98380.47;;;14.57;100.00
64080;BME280;51042;49.696;10.808;2022-10-16T04:21:58;98380.03;;;14.58;100.00
64080;BME280;51042;49.696;10.808;2022-10-16T04:24:24;98386.78;;;14.57;100.00
64080;BME280;51042;49.696;10.808;2022-10-16T04:26:49;98386.00;;;14.57;100.00
64080;BME280;51042;49.696;10.808;2022-10-16T04:29:14;98378.19;;;14.55;100.00
64080;BME280;51042;49.696;10.808;2022-10-16T04:31:39;98386.19;;;14.53;100.00
64080;BME280;51042;49.696;10.808;2022-10-16T04:34:05;98387.84;;;14.51;100.00
64080;BME280;51042;49.696;10.808;2022-10-16T04:36:30;98390.63;;;14.51;100.00
64080;BME280;51042;49.696;10.808;2022-10-16T04:38:55;98389.06;;;14.50;100.00
64080;BME280;51042;49.696;10.808;2022-10-16T04:41:21;98393.38;;;14.51;100.00
64080;BME280;51042;49.696;10.808;2022-10-16T04:43:46;98397.69;;;14.52;100.00
64080;BME280;51042;49.696;10.808;2022-10-16T04:46:12;98405.19;;;14.51;100.00
64080;BME280;51042;49.696;10.808;2022-10-16T04:48:37;98394.75;;;14.46;100.00
64080;BME280;51042;49.696;10.808;2022-10-16T04:51:03;98398.44;;;14.43;100.00
64080;BME280;51042;49.696;10.808;2022-10-16T04:53:28;98385.56;;;14.40;100.00
64080;BME280;51042;49.696;10.808;2022-10-16T04:55:53;98384.47;;;14.38;100.00
64080;BME280;51042;49.696;10.808;2022-10-16T04:58:19;98394.44;;;14.35;100.00
64080;BME280;51042;49.696;10.808;2022-10-16T05:00:44;98401.63;;;14.32;100.00
64080;BME280;51042;49.696;10.808;2022-10-16T05:03:11;98399.31;;;14.31;100.00
64080;BME280;51042;49.696;10.808;2022-10-16T05:05:41;98397.50;;;14.28;100.00
64080;BME280;51042;49.696;10.808;2022-10-16T05:08:08;98402.41;;;14.24;100.00
64080;BME280;51042;49.696;10.808;2022-10-16T05:10:33;98400.56;;;14.21;100.00
64080;BME280;51042;49.696;10.808;2022-10-16T05:12:58;98399.78;;;14.20;100.00
64080;BME280;51042;49.696;10.808;2022-10-16T05:15:24;98401.94;;;14.16;100.00
64080;BME280;51042;49.696;10.808;2022-10-16T05:17:51;98395.78;;;14.12;100.00
64080;BME280;51042;49.696;10.808;2022-10-16T05:20:18;98393.97;;;14.09;100.00
64080;BME280;51042;49.696;10.808;2022-10-16T05:22:43;98406.22;;;14.08;100.00
64080;BME280;51042;49.696;10.808;2022-10-16T05:25:08;98413.44;;;14.06;100.00
64080;BME280;51042;49.696;10.808;2022-10-16T05:27:33;98415.09;;;14.03;100.00
64080;BME280;51042;49.696;10.808;2022-10-16T05:29:59;98424.59;;;14.02;100.00
64080;BME280;51042;49.696;10.808;2022-10-16T05:32:24;98422.63;;;14.03;100.00
64080;BME280;51042;49.696;10.808;2022-10-16T05:34:50;98426.47;;;14.05;100.00
64080;BME280;51042;49.696;10.808;2022-10-16T05:37:15;98429.81;;;14.09;100.00
64080;BME280;51042;49.696;10.808;2022-10-16T05:39:41;98431.81;;;14.09;100.00
64080;BME280;51042;49.696;10.808;2022-10-16T05:42:06;98435.81;;;14.08;100.00
64080;BME280;51042;49.696;10.808;2022-10-16T05:44:32;98444.84;;;14.08;100.00
64080;BME280;51042;49.696;10.808;2022-10-16T05:46:58;98440.56;;;14.07;100.00
64080;BME280;51042;49.696;10.808;2022-10-16T05:49:23;98440.72;;;14.04;100.00
64080;BME280;51042;49.696;10.808;2022-10-16T05:51:49;98427.03;;;14.00;100.00
64080;BME280;51042;49.696;10.808;2022-10-16T05:54:17;98430.28;;;13.99;100.00
64080;BME280;51042;49.696;10.808;2022-10-16T05:56:42;98440.09;;;14.00;100.00
64080;BME280;51042;49.696;10.808;2022-10-16T05:59:08;98447.13;;;14.01;100.00
64080;BME280;51042;49.696;10.808;2022-10-16T06:01:33;98444.69;;;14.03;100.00
64080;BME280;51042;49.696;10.808;2022-10-16T06:04:00;98450.53;;;14.05;100.00
64080;BME280;51042;49.696;10.808;2022-10-16T06:06:28;98450.81;;;14.07;100.00
64080;BME280;51042;49.696;10.808;2022-10-16T06:08:54;98456.50;;;14.12;100.00
64080;BME280;51042;49.696;10.808;2022-10-16T06:11:25;98461.13;;;14.15;100.00
64080;BME280;51042;49.696;10.808;2022-10-16T06:13:53;98465.25;;;14.20;100.00
64080;BME280;51042;49.696;10.808;2022-10-16T06:16:21;98475.25;;;14.26;100.00
64080;BME280;51042;49.696;10.808;2022-10-16T06:18:50;98474.03;;;14.37;100.00
64080;BME280;51042;49.696;10.808;2022-10-16T06:21:17;98474.69;;;14.41;100.00
64080;BME280;51042;49.696;10.808;2022-10-16T06:23:44;98462.72;;;14.44;100.00
64080;BME280;51042;49.696;10.808;2022-10-16T06:26:14;98468.22;;;14.44;100.00
64080;BME280;51042;49.696;10.808;2022-10-16T06:28:42;98464.69;;;14.43;100.00
64080;BME280;51042;49.696;10.808;2022-10-16T06:31:08;98472.22;;;14.43;100.00
64080;BME280;51042;49.696;10.808;2022-10-16T06:33:35;98470.22;;;14.43;100.00
64080;BME280;51042;49.696;10.808;2022-10-16T06:36:04;98473.75;;;14.44;100.00
64080;BME280;51042;49.696;10.808;2022-10-16T06:38:38;98473.75;;;14.44;100.00
64080;BME280;51042;49.696;10.808;2022-10-16T06:41:04;98474.19;;;14.42;100.00
64080;BME280;51042;49.696;10.808;2022-10-16T06:43:31;98480.50;;;14.43;100.00
64080;BME280;51042;49.696;10.808;2022-10-16T06:45:57;98489.25;;;14.41;100.00
64080;BME280;51042;49.696;10.808;2022-10-16T06:48:23;98496.28;;;14.42;100.00
64080;BME280;51042;49.696;10.808;2022-10-16T06:53:27;98502.28;;;14.50;100.00
64080;BME280;51042;49.696;10.808;2022-10-16T06:55:57;98506.59;;;14.51;100.00
64080;BME280;51042;49.696;10.808;2022-10-16T06:58:22;98501.06;;;14.51;100.00
64080;BME280;51042;49.696;10.808;2022-10-16T07:00:48;98518.41;;;14.51;100.00
64080;BME280;51042;49.696;10.808;2022-10-16T07:03:19;98522.22;;;14.54;100.00
64080;BME280;51042;49.696;10.808;2022-10-16T07:05:44;98520.09;;;14.58;100.00
64080;BME280;51042;49.696;10.808;2022-10-16T07:08:10;98519.66;;;14.59;100.00
64080;BME280;51042;49.696;10.808;2022-10-16T07:10:35;98531.00;;;14.61;100.00
64080;BME280;51042;49.696;10.808;2022-10-16T07:13:01;98527.16;;;14.68;100.00
64080;BME280;51042;49.696;10.808;2022-10-16T07:15:26;98540.69;;;14.75;100.00
64080;BME280;51042;49.696;10.808;2022-10-16T07:17:52;98536.84;;;14.82;100.00
64080;BME280;51042;49.696;10.808;2022-10-16T07:20:18;98540.22;;;14.86;100.00
64080;BME280;51042;49.696;10.808;2022-10-16T07:22:43;98542.53;;;14.87;100.00
64080;BME280;51042;49.696;10.808;2022-10-16T07:25:09;98547.59;;;14.89;100.00
64080;BME280;51042;49.696;10.808;2022-10-16T07:27:34;98545.13;;;14.91;100.00
64080;BME280;51042;49.696;10.808;2022-10-16T07:29:59;98552.06;;;14.95;100.00
64080;BME280;51042;49.696;10.808;2022-10-16T07:32:25;98554.22;;;15.00;100.00
64080;BME280;51042;49.696;10.808;2022-10-16T07:34:51;98540.69;;;15.02;100.00
64080;BME280;51042;49.696;10.808;2022-10-16T07:37:17;98540.81;;;15.08;100.00
64080;BME280;51042;49.696;10.808;2022-10-16T07:39:42;98550.50;;;15.22;100.00
64080;BME280;51042;49.696;10.808;2022-10-16T07:42:07;98549.88;;;15.36;100.00
64080;BME280;51042;49.696;10.808;2022-10-16T07:44:33;98554.59;;;15.63;100.00
64080;BME280;51042;49.696;10.808;2022-10-16T07:46:58;98559.63;;;15.82;100.00
64080;BME280;51042;49.696;10.808;2022-10-16T07:49:23;98566.97;;;15.95;100.00
64080;BME280;51042;49.696;10.808;2022-10-16T07:51:49;98559.63;;;15.82;100.00
64080;BME280;51042;49.696;10.808;2022-10-16T07:54:14;98564.97;;;15.86;100.00
64080;BME280;51042;49.696;10.808;2022-10-16T07:56:40;98568.38;;;15.90;100.00
64080;BME280;51042;49.696;10.808;2022-10-16T07:59:05;98568.38;;;15.81;100.00
64080;BME280;51042;49.696;10.808;2022-10-16T08:01:30;98559.31;;;15.80;100.00
64080;BME280;51042;49.696;10.808;2022-10-16T08:03:56;98567.88;;;16.01;100.00
64080;BME280;51042;49.696;10.808;2022-10-16T08:06:21;98565.78;;;16.19;100.00
64080;BME280;51042;49.696;10.808;2022-10-16T08:08:47;98565.16;;;16.15;100.00
64080;BME280;51042;49.696;10.808;2022-10-16T08:11:12;98571.59;;;16.21;100.00
64080;BME280;51042;49.696;10.808;2022-10-16T08:13:39;98576.69;;;16.23;100.00
64080;BME280;51042;49.696;10.808;2022-10-16T08:16:04;98578.09;;;16.18;100.00
64080;BME280;51042;49.696;10.808;2022-10-16T08:18:42;98577.91;;;16.22;100.00
64080;BME280;51042;49.696;10.808;2022-10-16T08:21:08;98581.75;;;16.24;100.00
64080;BME280;51042;49.696;10.808;2022-10-16T08:23:38;98578.53;;;16.26;100.00
64080;BME280;51042;49.696;10.808;2022-10-16T08:26:05;98577.06;;;16.40;100.00
64080;BME280;51042;49.696;10.808;2022-10-16T08:28:31;98577.59;;;16.62;100.00
64080;BME280;51042;49.696;10.808;2022-10-16T08:31:04;98582.81;;;16.60;100.00
64080;BME280;51042;49.696;10.808;2022-10-16T08:33:40;98589.38;;;16.71;100.00
64080;BME280;51042;49.696;10.808;2022-10-16T08:36:08;98584.75;;;16.68;100.00
64080;BME280;51042;49.696;10.808;2022-10-16T08:38:35;98597.69;;;16.71;100.00
64080;BME280;51042;49.696;10.808;2022-10-16T08:41:10;98595.16;;;16.83;100.00
64080;BME280;51042;49.696;10.808;2022-10-16T08:49:27;98601.38;;;16.92;100.00
64080;BME280;51042;49.696;10.808;2022-10-16T08:51:55;98601.53;;;16.74;99.01
64080;BME280;51042;49.696;10.808;2022-10-16T08:57:09;98598.22;;;16.61;100.00
64080;BME280;51042;49.696;10.808;2022-10-16T08:59:36;98600.72;;;16.50;100.00
64080;BME280;51042;49.696;10.808;2022-10-16T09:02:02;98602.66;;;16.58;100.00
64080;BME280;51042;49.696;10.808;2022-10-16T09:10:13;98595.16;;;18.04;94.09
64080;BME280;51042;49.696;10.808;2022-10-16T09:12:47;98612.09;;;18.06;92.07
64080;BME280;51042;49.696;10.808;2022-10-16T09:15:25;98608.38;;;17.79;95.64
64080;BME280;51042;49.696;10.808;2022-10-16T09:21:31;98618.91;;;18.05;94.10
64080;BME280;51042;49.696;10.808;2022-10-16T09:23:36;98627.31;;;17.95;94.83
64080;BME280;51042;49.696;10.808;2022-10-16T09:26:02;98628.09;;;17.96;94.49
64080;BME280;51042;49.696;10.808;2022-10-16T09:28:30;98632.50;;;17.88;95.59
64080;BME280;51042;49.696;10.808;2022-10-16T09:30:55;98628.75;;;17.76;95.08
64080;BME280;51042;49.696;10.808;2022-10-16T09:33:22;98627.31;;;17.66;95.18
64080;BME280;51042;49.696;10.808;2022-10-16T09:35:51;98630.75;;;17.61;95.87
64080;BME280;51042;49.696;10.808;2022-10-16T09:38:23;98634.88;;;17.66;94.19
64080;BME280;51042;49.696;10.808;2022-10-16T09:40:48;98635.53;;;17.61;95.35
64080;BME280;51042;49.696;10.808;2022-10-16T09:43:22;98644.63;;;17.76;95.52
64080;BME280;51042;49.696;10.808;2022-10-16T09:48:43;98636.59;;;18.22;93.53
64080;BME280;51042;49.696;10.808;2022-10-16T09:51:19;98638.09;;;18.52;91.88
64080;BME280;51042;49.696;10.808;2022-10-16T09:53:47;98645.66;;;18.52;90.96
64080;BME280;51042;49.696;10.808;2022-10-16T09:56:26;98644.41;;;18.67;88.73
64080;BME280;51042;49.696;10.808;2022-10-16T09:58:53;98642.34;;;18.83;88.73
64080;BME280;51042;49.696;10.808;2022-10-16T10:01:20;98645.78;;;18.77;87.15
64080;BME280;51042;49.696;10.808;2022-10-16T10:03:47;98646.28;;;18.76;88.40
64080;BME280;51042;49.696;10.808;2022-10-16T10:08:56;98653.47;;;18.83;87.22
64080;BME280;51042;49.696;10.808;2022-10-16T10:11:39;98654.13;;;18.77;89.15
64080;BME280;51042;49.696;10.808;2022-10-16T10:19:29;98665.38;;;19.24;87.52
64080;BME280;51042;49.696;10.808;2022-10-16T10:21:54;98658.28;;;19.23;87.36
64080;BME280;51042;49.696;10.808;2022-10-16T10:24:20;98661.47;;;19.15;86.42
64080;BME280;51042;49.696;10.808;2022-10-16T10:26:57;98658.06;;;19.06;86.42
64080;BME280;51042;49.696;10.808;2022-10-16T10:29:42;98658.19;;;18.97;86.84
64080;BME280;51042;49.696;10.808;2022-10-16T10:32:28;98659.03;;;18.83;88.39
64080;BME280;51042;49.696;10.808;2022-10-16T10:38:38;98658.59;;;18.90;88.50
64080;BME280;51042;49.696;10.808;2022-10-16T10:40:51;98649.09;;;18.96;88.20
64080;BME280;51042;49.696;10.808;2022-10-16T10:46:17;98648.03;;;19.14;87.38
64080;BME280;51042;49.696;10.808;2022-10-16T10:51:31;98654.59;;;19.51;85.29
64080;BME280;51042;49.696;10.808;2022-10-16T10:54:22;98654.94;;;19.39;85.80
64080;BME280;51042;49.696;10.808;2022-10-16T10:57:00;98655.72;;;19.60;84.79
64080;BME280;51042;49.696;10.808;2022-10-16T11:02:27;98662.88;;;19.66;84.25
64080;BME280;51042;49.696;10.808;2022-10-16T11:07:28;98659.94;;;20.32;82.52
64080;BME280;51042;49.696;10.808;2022-10-16T11:09:58;98661.59;;;20.50;81.03
64080;BME280;51042;49.696;10.808;2022-10-16T11:12:31;98662.53;;;20.73;78.57
64080;BME280;51042;49.696;10.808;2022-10-16T11:20:42;98660.25;;;21.95;73.93
64080;BME280;51042;49.696;10.808;2022-10-16T11:23:23;98661.81;;;21.96;73.22
64080;BME280;51042;49.696;10.808;2022-10-16T11:25:57;98661.69;;;21.63;74.74
64080;BME280;51042;49.696;10.808;2022-10-16T11:28:34;98661.69;;;21.63;73.34
64080;BME280;51042;49.696;10.808;2022-10-16T11:34:09;98663.75;;;21.63;73.96
64080;BME280;51042;49.696;10.808;2022-10-16T11:39:30;98677.28;;;21.27;75.08
64080;BME280;51042;49.696;10.808;2022-10-16T11:42:02;98679.63;;;20.92;76.92
64080;BME280;51042;49.696;10.808;2022-10-16T11:47:19;98681.00;;;20.08;84.67
64080;BME280;51042;49.696;10.808;2022-10-16T11:50:01;98701.31;;;19.88;88.06
64080;BME280;51042;49.696;10.808;2022-10-16T11:52:39;98723.72;;;19.53;88.71
64080;BME280;51042;49.696;10.808;2022-10-16T11:58:09;98708.31;;;19.17;91.57
64080;BME280;51042;49.696;10.808;2022-10-16T12:00:44;98706.28;;;19.17;94.01
64080;BME280;51042;49.696;10.808;2022-10-16T12:06:21;98700.44;;;19.76;90.81
64080;BME280;51042;49.696;10.808;2022-10-16T12:08:54;98696.78;;;20.42;88.84
64080;BME280;51042;49.696;10.808;2022-10-16T12:14:03;98681.41;;;21.37;83.12
64080;BME280;51042;49.696;10.808;2022-10-16T12:16:38;98681.00;;;21.61;77.55
64080;BME280;51042;49.696;10.808;2022-10-16T12:19:16;98676.16;;;21.56;75.35
64080;BME280;51042;49.696;10.808;2022-10-16T12:21:42;98685.78;;;21.49;77.44
64080;BME280;51042;49.696;10.808;2022-10-16T12:26:53;98663.78;;;21.14;76.23
64080;BME280;51042;49.696;10.808;2022-10-16T12:32:03;98670.34;;;21.71;75.02
64080;BME280;51042;49.696;10.808;2022-10-16T12:37:09;98672.59;;;21.55;76.44
64080;BME280;51042;49.696;10.808;2022-10-16T12:39:38;98665.47;;;21.01;78.32
64080;BME280;51042;49.696;10.808;2022-10-16T12:42:05;98673.22;;;20.80;80.19
64080;BME280;51042;49.696;10.808;2022-10-16T12:44:44;98668.03;;;21.04;78.54
64080;BME280;51042;49.696;10.808;2022-10-16T12:47:18;98669.44;;;20.83;79.93
64080;BME280;51042;49.696;10.808;2022-10-16T12:49:52;98669.19;;;20.50;81.12
64080;BME280;51042;49.696;10.808;2022-10-16T12:52:26;98664.63;;;20.47;81.36
64080;BME280;51042;49.696;10.808;2022-10-16T12:54:59;98671.00;;;20.53;81.82
64080;BME280;51042;49.696;10.808;2022-10-16T12:57:38;98665.06;;;20.71;81.64
64080;BME280;51042;49.696;10.808;2022-10-16T13:00:36;98664.06;;;21.16;77.63
64080;BME280;51042;49.696;10.808;2022-10-16T13:11:44;98675.75;;;20.78;80.44
64080;BME280;51042;49.696;10.808;2022-10-16T13:14:20;98677.88;;;20.94;79.35
64080;BME280;51042;49.696;10.808;2022-10-16T13:17:14;98667.56;;;21.11;79.72
64080;BME280;51042;49.696;10.808;2022-10-16T13:19:58;98673.06;;;21.43;78.38
64080;BME280;51042;49.696;10.808;2022-10-16T13:28:30;98682.56;;;21.84;75.37
64080;BME280;51042;49.696;10.808;2022-10-16T13:30:58;98691.28;;;21.97;74.41
64080;BME280;51042;49.696;10.808;2022-10-16T13:35:57;98694.84;;;22.09;72.67
64080;BME280;51042;49.696;10.808;2022-10-16T13:38:23;98698.25;;;21.59;74.48
64080;BME280;51042;49.696;10.808;2022-10-16T13:40:58;98700.75;;;21.52;75.97
64080;BME280;51042;49.696;10.808;2022-10-16T13:46:13;98698.16;;;22.13;72.98
64080;BME280;51042;49.696;10.808;2022-10-16T13:48:40;98703.75;;;22.47;71.88
64080;BME280;51042;49.696;10.808;2022-10-16T13:53:39;98688.63;;;21.72;73.48
64080;BME280;51042;49.696;10.808;2022-10-16T13:56:07;98690.81;;;21.40;74.86
64080;BME280;51042;49.696;10.808;2022-10-16T13:58:36;98697.97;;;21.04;75.60
64080;BME280;51042;49.696;10.808;2022-10-16T14:01:06;98704.19;;;21.25;75.23
64080;BME280;51042;49.696;10.808;2022-10-16T14:03:42;98695.84;;;21.30;75.46
64080;BME280;51042;49.696;10.808;2022-10-16T14:06:11;98700.88;;;21.21;75.32
64080;BME280;51042;49.696;10.808;2022-10-16T14:08:42;98704.00;;;20.91;76.53
64080;BME280;51042;49.696;10.808;2022-10-16T14:11:11;98701.69;;;20.90;76.94
64080;BME280;51042;49.696;10.808;2022-10-16T14:13:38;98702.72;;;20.92;76.92
64080;BME280;51042;49.696;10.808;2022-10-16T14:16:09;98712.41;;;20.97;76.06
64080;BME280;51042;49.696;10.808;2022-10-16T14:18:36;98705.81;;;21.00;75.91
64080;BME280;51042;49.696;10.808;2022-10-16T14:21:07;98702.28;;;21.05;75.65
64080;BME280;51042;49.696;10.808;2022-10-16T14:23:39;98706.19;;;20.82;75.22
64080;BME280;51042;49.696;10.808;2022-10-16T14:26:15;98715.84;;;20.86;76.30
64080;BME280;51042;49.696;10.808;2022-10-16T14:28:43;98715.16;;;20.91;73.77
64080;BME280;51042;49.696;10.808;2022-10-16T14:31:26;98714.97;;;20.69;74.72
64080;BME280;51042;49.696;10.808;2022-10-16T14:33:53;98720.78;;;20.34;75.92
64080;BME280;51042;49.696;10.808;2022-10-16T14:36:19;98709.94;;;20.16;77.60
64080;BME280;51042;49.696;10.808;2022-10-16T14:41:25;98698.53;;;19.88;79.29
64080;BME280;51042;49.696;10.808;2022-10-16T14:43:52;98705.06;;;19.85;79.72
64080;BME280;51042;49.696;10.808;2022-10-16T14:46:21;98699.03;;;19.86;79.94
64080;BME280;51042;49.696;10.808;2022-10-16T14:48:58;98701.84;;;19.92;79.53
64080;BME280;51042;49.696;10.808;2022-10-16T14:51:27;98702.63;;;19.92;79.93
64080;BME280;51042;49.696;10.808;2022-10-16T14:53:53;98704.66;;;19.92;80.79
64080;BME280;51042;49.696;10.808;2022-10-16T14:56:20;98706.13;;;19.87;81.22
64080;BME280;51042;49.696;10.808;2022-10-16T14:58:47;98713.50;;;19.90;81.57
64080;BME280;51042;49.696;10.808;2022-10-16T15:01:15;98712.53;;;19.93;81.59
64080;BME280;51042;49.696;10.808;2022-10-16T15:03:40;98709.97;;;19.90;81.40